sensor_id;sensor_type;location;lat;lon;timestamp;P1;durP1;ratioP1;P2;durP2;ratioP2
9698;SDS011;10089;47.876;8.346;2022-09-03T00:00:14;4.32;;;2.13;;
9698;SDS011;10089;47.876;8.346;2022-09-03T00:03:26;2.33;;;2.13;;
9698;SDS011;10089;47.876;8.346;2022-09-03T00:08:56;6.63;;;3.17;;
9698;SDS011;10089;47.876;8.346;2022-09-03T00:11:26;2.95;;;2.75;;
9698;SDS011;10089;47.876;8.346;2022-09-03T00:13:58;5.05;;;3.10;;
9698;SDS011;10089;47.876;8.346;2022-09-03T00:19:17;3.85;;;3.20;;
9698;SDS011;10089;47.876;8.346;2022-09-03T00:21:51;5.40;;;3.60;;
9698;SDS011;10089;47.876;8.346;2022-09-03T00:24:21;3.55;;;3.25;;
9698;SDS011;10089;47.876;8.346;2022-09-03T00:26:49;3.90;;;3.50;;
9698;SDS011;10089;47.876;8.346;2022-09-03T00:29:32;3.78;;;3.42;;
9698;SDS011;10089;47.876;8.346;2022-09-03T00:32:09;4.32;;;3.92;;
9698;SDS011;10089;47.876;8.346;2022-09-03T00:34:49;5.97;;;4.40;;
9698;SDS011;10089;47.876;8.346;2022-09-03T00:37:20;5.63;;;5.13;;
9698;SDS011;10089;47.876;8.346;2022-09-03T00:39:46;9.38;;;5.60;;
9698;SDS011;10089;47.876;8.346;2022-09-03T00:42:17;6.50;;;5.90;;
9698;SDS011;10089;47.876;8.346;2022-09-03T00:47:40;6.80;;;5.30;;
9698;SDS011;10089;47.876;8.346;2022-09-03T00:53:20;5.50;;;5.00;;
9698;SDS011;10089;47.876;8.346;2022-09-03T00:58:50;7.07;;;5.50;;
9698;SDS011;10089;47.876;8.346;2022-09-03T01:02:22;7.80;;;5.50;;
9698;SDS011;10089;47.876;8.346;2022-09-03T01:13:09;7.45;;;6.75;;
9698;SDS011;10089;47.876;8.346;2022-09-03T01:19:02;7.38;;;6.68;;
9698;SDS011;10089;47.876;8.346;2022-09-03T01:27:17;8.50;;;6.40;;
9698;SDS011;10089;47.876;8.346;2022-09-03T01:43:55;5.55;;;4.93;;
9698;SDS011;10089;47.876;8.346;2022-09-03T01:46:43;5.55;;;4.60;;
9698;SDS011;10089;47.876;8.346;2022-09-03T01:52:10;5.20;;;4.30;;
9698;SDS011;10089;47.876;8.346;2022-09-03T01:57:35;5.50;;;4.03;;
9698;SDS011;10089;47.876;8.346;2022-09-03T02:00:14;7.07;;;4.13;;
9698;SDS011;10089;47.876;8.346;2022-09-03T02:02:44;5.55;;;4.05;;
9698;SDS011;10089;47.876;8.346;2022-09-03T02:05:13;4.10;;;3.60;;
9698;SDS011;10089;47.876;8.346;2022-09-03T02:07:47;5.45;;;3.33;;
9698;SDS011;10089;47.876;8.346;2022-09-03T02:10:18;4.40;;;3.35;;
9698;SDS011;10089;47.876;8.346;2022-09-03T02:12:56;5.80;;;3.60;;
9698;SDS011;10089;47.876;8.346;2022-09-03T02:15:27;3.88;;;3.47;;
9698;SDS011;10089;47.876;8.346;2022-09-03T02:17:56;3.90;;;3.50;;
9698;SDS011;10089;47.876;8.346;2022-09-03T02:20:26;4.00;;;3.70;;
9698;SDS011;10089;47.876;8.346;2022-09-03T02:22:53;5.82;;;3.55;;
9698;SDS011;10089;47.876;8.346;2022-09-03T02:25:22;4.90;;;3.30;;
9698;SDS011;10089;47.876;8.346;2022-09-03T02:27:54;5.85;;;3.60;;
9698;SDS011;10089;47.876;8.346;2022-09-03T02:30:20;4.90;;;3.53;;
9698;SDS011;10089;47.876;8.346;2022-09-03T02:32:46;3.63;;;3.33;;
9698;SDS011;10089;47.876;8.346;2022-09-03T02:35:12;5.32;;;3.97;;
9698;SDS011;10089;47.876;8.346;2022-09-03T02:37:38;4.07;;;3.75;;
9698;SDS011;10089;47.876;8.346;2022-09-03T02:40:04;7.85;;;4.50;;
9698;SDS011;10089;47.876;8.346;2022-09-03T02:42:34;4.30;;;3.80;;
9698;SDS011;10089;47.876;8.346;2022-09-03T02:45:02;5.53;;;3.88;;
9698;SDS011;10089;47.876;8.346;2022-09-03T02:47:52;4.45;;;4.03;;
9698;SDS011;10089;47.876;8.346;2022-09-03T02:50:21;6.22;;;3.85;;
9698;SDS011;10089;47.876;8.346;2022-09-03T02:52:48;5.03;;;4.03;;
9698;SDS011;10089;47.876;8.346;2022-09-03T02:55:14;6.15;;;4.25;;
9698;SDS011;10089;47.876;8.346;2022-09-03T02:57:40;7.20;;;3.95;;
9698;SDS011;10089;47.876;8.346;2022-09-03T03:00:06;4.50;;;4.07;;
9698;SDS011;10089;47.876;8.346;2022-09-03T03:02:33;4.65;;;4.25;;
9698;SDS011;10089;47.876;8.346;2022-09-03T03:04:59;4.30;;;3.90;;
9698;SDS011;10089;47.876;8.346;2022-09-03T03:07:26;4.88;;;3.45;;
9698;SDS011;10089;47.876;8.346;2022-09-03T03:09:56;5.63;;;4.10;;
9698;SDS011;10089;47.876;8.346;2022-09-03T03:12:22;4.95;;;4.45;;
9698;SDS011;10089;47.876;8.346;2022-09-03T03:14:49;4.78;;;4.10;;
9698;SDS011;10089;47.876;8.346;2022-09-03T03:17:15;4.13;;;3.72;;
9698;SDS011;10089;47.876;8.346;2022-09-03T03:19:40;4.30;;;3.90;;
9698;SDS011;10089;47.876;8.346;2022-09-03T03:22:06;5.90;;;3.70;;
9698;SDS011;10089;47.876;8.346;2022-09-03T03:24:32;4.38;;;3.92;;
9698;SDS011;10089;47.876;8.346;2022-09-03T03:26:58;3.78;;;3.47;;
9698;SDS011;10089;47.876;8.346;2022-09-03T03:29:23;4.00;;;3.60;;
9698;SDS011;10089;47.876;8.346;2022-09-03T03:31:50;3.55;;;3.25;;
9698;SDS011;10089;47.876;8.346;2022-09-03T03:34:16;4.55;;;3.45;;
9698;SDS011;10089;47.876;8.346;2022-09-03T03:36:42;6.25;;;3.70;;
9698;SDS011;10089;47.876;8.346;2022-09-03T03:39:07;7.75;;;3.95;;
9698;SDS011;10089;47.876;8.346;2022-09-03T03:41:34;4.43;;;3.85;;
9698;SDS011;10089;47.876;8.346;2022-09-03T03:44:04;4.85;;;3.67;;
9698;SDS011;10089;47.876;8.346;2022-09-03T03:46:35;6.28;;;4.43;;
9698;SDS011;10089;47.876;8.346;2022-09-03T03:49:05;4.82;;;3.95;;
9698;SDS011;10089;47.876;8.346;2022-09-03T03:51:32;4.45;;;4.05;;
9698;SDS011;10089;47.876;8.346;2022-09-03T03:53:59;5.43;;;4.93;;
9698;SDS011;10089;47.876;8.346;2022-09-03T03:56:26;6.35;;;5.78;;
9698;SDS011;10089;47.876;8.346;2022-09-03T03:58:52;7.05;;;6.35;;
9698;SDS011;10089;47.876;8.346;2022-09-03T04:01:20;9.00;;;8.07;;
9698;SDS011;10089;47.876;8.346;2022-09-03T04:03:47;10.68;;;9.30;;
9698;SDS011;10089;47.876;8.346;2022-09-03T04:06:14;14.15;;;9.93;;
9698;SDS011;10089;47.876;8.346;2022-09-03T04:08:42;13.27;;;11.07;;
9698;SDS011;10089;47.876;8.346;2022-09-03T04:11:10;16.52;;;12.38;;
9698;SDS011;10089;47.876;8.346;2022-09-03T04:13:38;17.35;;;14.05;;
9698;SDS011;10089;47.876;8.346;2022-09-03T04:18:32;17.23;;;13.93;;
9698;SDS011;10089;47.876;8.346;2022-09-03T04:21:32;17.95;;;14.40;;
9698;SDS011;10089;47.876;8.346;2022-09-03T04:23:53;20.85;;;16.17;;
9698;SDS011;10089;47.876;8.346;2022-09-03T04:26:26;21.60;;;16.85;;
9698;SDS011;10089;47.876;8.346;2022-09-03T04:28:56;21.90;;;18.15;;
9698;SDS011;10089;47.876;8.346;2022-09-03T04:31:26;24.85;;;18.73;;
9698;SDS011;10089;47.876;8.346;2022-09-03T04:33:52;23.35;;;19.27;;
9698;SDS011;10089;47.876;8.346;2022-09-03T04:36:22;27.30;;;20.77;;
9698;SDS011;10089;47.876;8.346;2022-09-03T04:38:50;24.73;;;20.35;;
9698;SDS011;10089;47.876;8.346;2022-09-03T04:41:24;26.20;;;19.05;;
9698;SDS011;10089;47.876;8.346;2022-09-03T04:43:52;20.77;;;17.42;;
9698;SDS011;10089;47.876;8.346;2022-09-03T04:46:19;22.52;;;16.48;;
9698;SDS011;10089;47.876;8.346;2022-09-03T04:48:47;18.42;;;14.38;;
9698;SDS011;10089;47.876;8.346;2022-09-03T04:51:17;19.40;;;15.70;;
9698;SDS011;10089;47.876;8.346;2022-09-03T04:53:46;19.60;;;15.48;;
9698;SDS011;10089;47.876;8.346;2022-09-03T04:56:20;14.65;;;13.00;;
9698;SDS011;10089;47.876;8.346;2022-09-03T04:58:48;15.38;;;13.68;;
9698;SDS011;10089;47.876;8.346;2022-09-03T05:01:20;16.10;;;13.38;;
9698;SDS011;10089;47.876;8.346;2022-09-03T05:03:48;13.82;;;12.25;;
9698;SDS011;10089;47.876;8.346;2022-09-03T05:06:16;16.45;;;13.60;;
9698;SDS011;10089;47.876;8.346;2022-09-03T05:08:42;15.77;;;13.80;;
9698;SDS011;10089;47.876;8.346;2022-09-03T05:11:12;15.85;;;13.13;;
9698;SDS011;10089;47.876;8.346;2022-09-03T05:13:38;16.73;;;13.65;;
9698;SDS011;10089;47.876;8.346;2022-09-03T05:16:04;17.63;;;14.18;;
9698;SDS011;10089;47.876;8.346;2022-09-03T05:18:32;14.93;;;12.73;;
9698;SDS011;10089;47.876;8.346;2022-09-03T05:21:03;15.52;;;13.35;;
9698;SDS011;10089;47.876;8.346;2022-09-03T05:23:31;15.75;;;14.05;;
9698;SDS011;10089;47.876;8.346;2022-09-03T05:26:02;17.30;;;13.73;;
9698;SDS011;10089;47.876;8.346;2022-09-03T05:28:33;17.98;;;14.65;;
9698;SDS011;10089;47.876;8.346;2022-09-03T05:33:33;17.83;;;14.00;;
9698;SDS011;10089;47.876;8.346;2022-09-03T05:36:00;19.00;;;15.38;;
9698;SDS011;10089;47.876;8.346;2022-09-03T05:38:27;16.67;;;14.57;;
9698;SDS011;10089;47.876;8.346;2022-09-03T05:40:56;20.45;;;15.20;;
9698;SDS011;10089;47.876;8.346;2022-09-03T05:43:23;15.70;;;12.75;;
9698;SDS011;10089;47.876;8.346;2022-09-03T05:45:49;17.15;;;13.38;;
9698;SDS011;10089;47.876;8.346;2022-09-03T05:48:15;17.58;;;13.57;;
9698;SDS011;10089;47.876;8.346;2022-09-03T05:50:41;17.30;;;14.35;;
9698;SDS011;10089;47.876;8.346;2022-09-03T05:53:06;18.75;;;14.52;;
9698;SDS011;10089;47.876;8.346;2022-09-03T05:55:32;18.23;;;13.88;;
9698;SDS011;10089;47.876;8.346;2022-09-03T05:57:58;14.55;;;12.68;;
9698;SDS011;10089;47.876;8.346;2022-09-03T06:00:24;14.10;;;11.75;;
9698;SDS011;10089;47.876;8.346;2022-09-03T06:02:50;12.85;;;11.32;;
9698;SDS011;10089;47.876;8.346;2022-09-03T06:05:17;15.95;;;13.43;;
9698;SDS011;10089;47.876;8.346;2022-09-03T06:07:44;19.77;;;14.35;;
9698;SDS011;10089;47.876;8.346;2022-09-03T06:10:12;15.15;;;12.82;;
9698;SDS011;10089;47.876;8.346;2022-09-03T06:12:40;15.57;;;12.40;;
9698;SDS011;10089;47.876;8.346;2022-09-03T06:15:06;15.60;;;12.30;;
9698;SDS011;10089;47.876;8.346;2022-09-03T06:17:33;12.50;;;10.43;;
9698;SDS011;10089;47.876;8.346;2022-09-03T06:19:58;13.38;;;11.15;;
9698;SDS011;10089;47.876;8.346;2022-09-03T06:22:24;12.35;;;11.05;;
9698;SDS011;10089;47.876;8.346;2022-09-03T06:24:52;13.20;;;11.38;;
9698;SDS011;10089;47.876;8.346;2022-09-03T06:27:18;16.88;;;11.80;;
9698;SDS011;10089;47.876;8.346;2022-09-03T06:29:45;14.65;;;12.70;;
9698;SDS011;10089;47.876;8.346;2022-09-03T06:32:11;14.20;;;12.48;;
9698;SDS011;10089;47.876;8.346;2022-09-03T06:34:36;17.90;;;12.70;;
9698;SDS011;10089;47.876;8.346;2022-09-03T06:37:02;16.02;;;12.05;;
9698;SDS011;10089;47.876;8.346;2022-09-03T06:39:28;14.02;;;12.20;;
9698;SDS011;10089;47.876;8.346;2022-09-03T06:41:54;15.05;;;12.18;;
9698;SDS011;10089;47.876;8.346;2022-09-03T06:44:20;17.35;;;12.40;;
9698;SDS011;10089;47.876;8.346;2022-09-03T06:46:46;14.25;;;12.75;;
9698;SDS011;10089;47.876;8.346;2022-09-03T06:49:12;13.85;;;11.93;;
9698;SDS011;10089;47.876;8.346;2022-09-03T06:51:39;17.25;;;11.82;;
9698;SDS011;10089;47.876;8.346;2022-09-03T06:54:09;15.90;;;11.70;;
9698;SDS011;10089;47.876;8.346;2022-09-03T06:56:37;12.15;;;9.90;;
9698;SDS011;10089;47.876;8.346;2022-09-03T06:59:08;11.32;;;9.15;;
9698;SDS011;10089;47.876;8.346;2022-09-03T07:01:39;10.73;;;8.60;;
9698;SDS011;10089;47.876;8.346;2022-09-03T07:04:06;12.63;;;9.45;;
9698;SDS011;10089;47.876;8.346;2022-09-03T07:06:36;13.82;;;9.65;;
9698;SDS011;10089;47.876;8.346;2022-09-03T07:09:04;13.30;;;11.02;;
9698;SDS011;10089;47.876;8.346;2022-09-03T07:11:31;13.75;;;11.02;;
9698;SDS011;10089;47.876;8.346;2022-09-03T07:13:59;8.95;;;8.15;;
9698;SDS011;10089;47.876;8.346;2022-09-03T07:16:33;7.43;;;6.53;;
9698;SDS011;10089;47.876;8.346;2022-09-03T07:19:00;6.55;;;4.75;;
9698;SDS011;10089;47.876;8.346;2022-09-03T07:21:28;5.28;;;4.68;;
9698;SDS011;10089;47.876;8.346;2022-09-03T07:23:55;5.10;;;4.60;;
9698;SDS011;10089;47.876;8.346;2022-09-03T07:26:23;5.63;;;5.07;;
9698;SDS011;10089;47.876;8.346;2022-09-03T07:28:50;5.55;;;5.03;;
9698;SDS011;10089;47.876;8.346;2022-09-03T07:31:22;6.22;;;5.63;;
9698;SDS011;10089;47.876;8.346;2022-09-03T07:33:54;5.93;;;5.32;;
9698;SDS011;10089;47.876;8.346;2022-09-03T07:36:20;6.97;;;6.28;;
9698;SDS011;10089;47.876;8.346;2022-09-03T07:38:47;5.72;;;5.22;;
9698;SDS011;10089;47.876;8.346;2022-09-03T07:41:13;5.88;;;5.32;;
9698;SDS011;10089;47.876;8.346;2022-09-03T07:43:40;6.22;;;5.63;;
9698;SDS011;10089;47.876;8.346;2022-09-03T08:24:03;3.97;;;3.60;;
9698;SDS011;10089;47.876;8.346;2022-09-03T08:26:38;4.13;;;3.67;;
9698;SDS011;10089;47.876;8.346;2022-09-03T08:29:13;4.15;;;3.75;;
9698;SDS011;10089;47.876;8.346;2022-09-03T08:31:48;3.67;;;3.30;;
9698;SDS011;10089;47.876;8.346;2022-09-03T08:34:36;4.30;;;3.45;;
9698;SDS011;10089;47.876;8.346;2022-09-03T08:37:13;3.92;;;3.47;;
9698;SDS011;10089;47.876;8.346;2022-09-03T08:40:12;3.72;;;3.42;;
9698;SDS011;10089;47.876;8.346;2022-09-03T08:42:40;3.55;;;3.25;;
9698;SDS011;10089;47.876;8.346;2022-09-03T08:45:33;4.15;;;3.75;;
9698;SDS011;10089;47.876;8.346;2022-09-03T08:48:13;4.22;;;3.75;;
9698;SDS011;10089;47.876;8.346;2022-09-03T08:50:45;6.78;;;4.10;;
9698;SDS011;10089;47.876;8.346;2022-09-03T08:56:06;5.18;;;3.30;;
9698;SDS011;10089;47.876;8.346;2022-09-03T08:58:37;3.50;;;3.15;;
9698;SDS011;10089;47.876;8.346;2022-09-03T09:04:21;4.90;;;3.50;;
9698;SDS011;10089;47.876;8.346;2022-09-03T09:07:16;5.07;;;3.25;;
9698;SDS011;10089;47.876;8.346;2022-09-03T09:23:03;3.33;;;2.60;;
9698;SDS011;10089;47.876;8.346;2022-09-03T09:25:31;3.78;;;3.33;;
9698;SDS011;10089;47.876;8.346;2022-09-03T09:28:12;3.55;;;3.25;;
9698;SDS011;10089;47.876;8.346;2022-09-03T09:30:47;5.28;;;3.17;;
9698;SDS011;10089;47.876;8.346;2022-09-03T09:33:15;2.75;;;2.55;;
9698;SDS011;10089;47.876;8.346;2022-09-03T09:35:43;2.95;;;2.75;;
9698;SDS011;10089;47.876;8.346;2022-09-03T09:38:10;3.08;;;2.70;;
9698;SDS011;10089;47.876;8.346;2022-09-03T09:40:38;2.47;;;2.28;;
9698;SDS011;10089;47.876;8.346;2022-09-03T09:43:23;3.38;;;2.13;;
9698;SDS011;10089;47.876;8.346;2022-09-03T09:45:50;2.50;;;2.30;;
9698;SDS011;10089;47.876;8.346;2022-09-03T09:48:20;2.60;;;2.40;;
9698;SDS011;10089;47.876;8.346;2022-09-03T09:50:46;5.57;;;2.70;;
9698;SDS011;10089;47.876;8.346;2022-09-03T09:53:13;8.30;;;3.38;;
9698;SDS011;10089;47.876;8.346;2022-09-03T09:55:55;4.05;;;3.38;;
9698;SDS011;10089;47.876;8.346;2022-09-03T09:58:40;3.95;;;3.22;;
9698;SDS011;10089;47.876;8.346;2022-09-03T10:01:09;6.30;;;2.50;;
9698;SDS011;10089;47.876;8.346;2022-09-03T10:03:50;7.82;;;1.70;;
9698;SDS011;10089;47.876;8.346;2022-09-03T10:06:30;4.38;;;1.60;;
9698;SDS011;10089;47.876;8.346;2022-09-03T10:09:16;2.90;;;1.50;;
9698;SDS011;10089;47.876;8.346;2022-09-03T10:11:44;2.65;;;1.35;;
9698;SDS011;10089;47.876;8.346;2022-09-03T10:14:38;5.13;;;1.40;;
9698;SDS011;10089;47.876;8.346;2022-09-03T10:17:13;1.70;;;1.33;;
9698;SDS011;10089;47.876;8.346;2022-09-03T10:22:49;1.75;;;1.38;;
9698;SDS011;10089;47.876;8.346;2022-09-03T10:25:20;2.42;;;1.40;;
9698;SDS011;10089;47.876;8.346;2022-09-03T10:27:49;3.00;;;1.33;;
9698;SDS011;10089;47.876;8.346;2022-09-03T10:30:18;2.25;;;1.40;;
9698;SDS011;10089;47.876;8.346;2022-09-03T10:32:47;1.30;;;1.20;;
9698;SDS011;10089;47.876;8.346;2022-09-03T10:35:31;1.70;;;1.20;;
9698;SDS011;10089;47.876;8.346;2022-09-03T10:38:16;4.03;;;1.20;;
9698;SDS011;10089;47.876;8.346;2022-09-03T10:46:18;1.33;;;1.23;;
9698;SDS011;10089;47.876;8.346;2022-09-03T10:51:47;1.30;;;1.20;;
9698;SDS011;10089;47.876;8.346;2022-09-03T10:54:31;1.70;;;1.20;;
9698;SDS011;10089;47.876;8.346;2022-09-03T11:00:01;1.30;;;1.20;;
9698;SDS011;10089;47.876;8.346;2022-09-03T11:05:19;1.73;;;1.25;;
9698;SDS011;10089;47.876;8.346;2022-09-03T11:08:04;1.05;;;0.95;;
9698;SDS011;10089;47.876;8.346;2022-09-03T11:10:42;1.20;;;1.00;;
9698;SDS011;10089;47.876;8.346;2022-09-03T11:13:27;1.45;;;1.00;;
9698;SDS011;10089;47.876;8.346;2022-09-03T11:16:25;1.30;;;1.00;;
9698;SDS011;10089;47.876;8.346;2022-09-03T11:19:11;0.90;;;0.88;;
9698;SDS011;10089;47.876;8.346;2022-09-03T11:21:43;0.93;;;0.90;;
9698;SDS011;10089;47.876;8.346;2022-09-03T11:24:15;1.23;;;0.85;;
9698;SDS011;10089;47.876;8.346;2022-09-03T11:26:47;2.38;;;1.40;;
9698;SDS011;10089;47.876;8.346;2022-09-03T11:29:21;3.13;;;1.08;;
9698;SDS011;10089;47.876;8.346;2022-09-03T11:32:03;1.08;;;1.00;;
9698;SDS011;10089;47.876;8.346;2022-09-03T11:34:52;0.80;;;0.80;;
9698;SDS011;10089;47.876;8.346;2022-09-03T11:37:22;1.20;;;1.02;;
9698;SDS011;10089;47.876;8.346;2022-09-03T11:39:57;0.90;;;0.80;;
9698;SDS011;10089;47.876;8.346;2022-09-03T11:44:59;0.80;;;0.80;;
9698;SDS011;10089;47.876;8.346;2022-09-03T11:47:41;0.98;;;0.90;;
9698;SDS011;10089;47.876;8.346;2022-09-03T11:53:06;0.57;;;0.57;;
9698;SDS011;10089;47.876;8.346;2022-09-03T11:55:53;1.95;;;0.80;;
9698;SDS011;10089;47.876;8.346;2022-09-03T11:58:34;0.85;;;0.82;;
9698;SDS011;10089;47.876;8.346;2022-09-03T12:01:04;0.57;;;0.57;;
9698;SDS011;10089;47.876;8.346;2022-09-03T12:03:58;1.20;;;0.60;;
9698;SDS011;10089;47.876;8.346;2022-09-03T12:18:11;0.80;;;0.80;;
9698;SDS011;10089;47.876;8.346;2022-09-03T12:21:09;0.70;;;0.70;;
9698;SDS011;10089;47.876;8.346;2022-09-03T12:23:45;0.73;;;0.70;;
9698;SDS011;10089;47.876;8.346;2022-09-03T12:26:27;0.52;;;0.52;;
9698;SDS011;10089;47.876;8.346;2022-09-03T12:28:54;0.70;;;0.70;;
9698;SDS011;10089;47.876;8.346;2022-09-03T12:31:22;1.88;;;1.50;;
9698;SDS011;10089;47.876;8.346;2022-09-03T12:36:38;0.68;;;0.68;;
9698;SDS011;10089;47.876;8.346;2022-09-03T12:39:14;0.70;;;0.70;;
9698;SDS011;10089;47.876;8.346;2022-09-03T12:42:00;1.38;;;0.80;;
9698;SDS011;10089;47.876;8.346;2022-09-03T12:44:30;0.80;;;0.70;;
9698;SDS011;10089;47.876;8.346;2022-09-03T12:46:59;0.50;;;0.50;;
9698;SDS011;10089;47.876;8.346;2022-09-03T12:49:36;0.70;;;0.70;;
9698;SDS011;10089;47.876;8.346;2022-09-03T12:52:09;0.50;;;0.50;;
9698;SDS011;10089;47.876;8.346;2022-09-03T12:54:47;0.60;;;0.60;;
9698;SDS011;10089;47.876;8.346;2022-09-03T12:57:36;0.73;;;0.73;;
9698;SDS011;10089;47.876;8.346;2022-09-03T13:00:07;0.70;;;0.70;;
9698;SDS011;10089;47.876;8.346;2022-09-03T13:02:40;0.90;;;0.90;;
9698;SDS011;10089;47.876;8.346;2022-09-03T13:05:13;1.10;;;1.00;;
9698;SDS011;10089;47.876;8.346;2022-09-03T13:07:44;0.70;;;0.70;;
9698;SDS011;10089;47.876;8.346;2022-09-03T13:10:35;0.57;;;0.57;;
9698;SDS011;10089;47.876;8.346;2022-09-03T13:13:22;0.63;;;0.63;;
9698;SDS011;10089;47.876;8.346;2022-09-03T13:21:33;0.70;;;0.70;;
9698;SDS011;10089;47.876;8.346;2022-09-03T13:24:18;0.70;;;0.70;;
9698;SDS011;10089;47.876;8.346;2022-09-03T13:39:40;0.75;;;0.75;;
9698;SDS011;10089;47.876;8.346;2022-09-03T13:45:11;0.82;;;0.70;;
9698;SDS011;10089;47.876;8.346;2022-09-03T13:56:46;0.60;;;0.60;;
9698;SDS011;10089;47.876;8.346;2022-09-03T13:59:22;0.90;;;0.90;;
9698;SDS011;10089;47.876;8.346;2022-09-03T14:05:14;0.70;;;0.70;;
9698;SDS011;10089;47.876;8.346;2022-09-03T14:13:27;0.60;;;0.60;;
9698;SDS011;10089;47.876;8.346;2022-09-03T14:18:53;1.83;;;0.73;;
9698;SDS011;10089;47.876;8.346;2022-09-03T14:24:26;2.63;;;1.10;;
9698;SDS011;10089;47.876;8.346;2022-09-03T14:26:56;0.90;;;0.85;;
9698;SDS011;10089;47.876;8.346;2022-09-03T14:29:27;0.98;;;0.98;;
9698;SDS011;10089;47.876;8.346;2022-09-03T14:39:53;1.00;;;0.90;;
9698;SDS011;10089;47.876;8.346;2022-09-03T14:42:30;1.10;;;1.00;;
9698;SDS011;10089;47.876;8.346;2022-09-03T14:50:56;1.48;;;1.00;;
9698;SDS011;10089;47.876;8.346;2022-09-03T14:53:49;1.92;;;1.20;;
9698;SDS011;10089;47.876;8.346;2022-09-03T15:07:48;1.38;;;1.20;;
9698;SDS011;10089;47.876;8.346;2022-09-03T15:10:51;1.98;;;1.40;;
9698;SDS011;10089;47.876;8.346;2022-09-03T15:16:07;3.17;;;1.30;;
9698;SDS011;10089;47.876;8.346;2022-09-03T15:21:34;1.27;;;1.20;;
9698;SDS011;10089;47.876;8.346;2022-09-03T15:30:04;1.92;;;1.25;;
9698;SDS011;10089;47.876;8.346;2022-09-03T15:32:55;1.40;;;1.30;;
9698;SDS011;10089;47.876;8.346;2022-09-03T15:41:23;1.50;;;1.40;;
9698;SDS011;10089;47.876;8.346;2022-09-03T15:43:57;2.72;;;1.80;;
9698;SDS011;10089;47.876;8.346;2022-09-03T15:49:16;2.50;;;1.77;;
9698;SDS011;10089;47.876;8.346;2022-09-03T15:52:09;4.20;;;3.50;;
9698;SDS011;10089;47.876;8.346;2022-09-03T15:54:42;2.13;;;1.90;;
9698;SDS011;10089;47.876;8.346;2022-09-03T16:00:03;2.15;;;1.58;;
9698;SDS011;10089;47.876;8.346;2022-09-03T16:02:43;1.50;;;1.40;;
9698;SDS011;10089;47.876;8.346;2022-09-03T16:05:37;2.33;;;1.50;;
9698;SDS011;10089;47.876;8.346;2022-09-03T16:16:13;1.52;;;1.42;;
9698;SDS011;10089;47.876;8.346;2022-09-03T16:24:17;1.75;;;1.60;;
9698;SDS011;10089;47.876;8.346;2022-09-03T16:29:17;1.20;;;1.10;;
9698;SDS011;10089;47.876;8.346;2022-09-03T16:39:59;2.85;;;1.85;;
9698;SDS011;10089;47.876;8.346;2022-09-03T16:56:16;2.40;;;1.80;;
9698;SDS011;10089;47.876;8.346;2022-09-03T16:59:24;2.70;;;2.00;;
9698;SDS011;10089;47.876;8.346;2022-09-03T17:02:00;6.40;;;1.92;;
9698;SDS011;10089;47.876;8.346;2022-09-03T17:05:08;1.73;;;1.30;;
9698;SDS011;10089;47.876;8.346;2022-09-03T17:07:53;3.97;;;1.77;;
9698;SDS011;10089;47.876;8.346;2022-09-03T17:24:49;3.58;;;1.90;;
9698;SDS011;10089;47.876;8.346;2022-09-03T17:35:40;2.50;;;1.83;;
9698;SDS011;10089;47.876;8.346;2022-09-03T17:41:30;1.73;;;1.63;;
9698;SDS011;10089;47.876;8.346;2022-09-03T17:49:31;2.55;;;2.00;;
9698;SDS011;10089;47.876;8.346;2022-09-03T17:52:36;4.50;;;2.97;;
9698;SDS011;10089;47.876;8.346;2022-09-03T17:55:14;3.65;;;2.45;;
9698;SDS011;10089;47.876;8.346;2022-09-03T17:57:56;2.63;;;2.20;;
9698;SDS011;10089;47.876;8.346;2022-09-03T18:03:55;2.40;;;2.20;;
9698;SDS011;10089;47.876;8.346;2022-09-03T18:09:26;2.28;;;2.08;;
9698;SDS011;10089;47.876;8.346;2022-09-03T18:12:10;2.42;;;2.22;;
9698;SDS011;10089;47.876;8.346;2022-09-03T18:14:49;3.78;;;2.50;;
9698;SDS011;10089;47.876;8.346;2022-09-03T18:17:56;2.58;;;2.28;;
9698;SDS011;10089;47.876;8.346;2022-09-03T18:20:17;2.95;;;2.65;;
9698;SDS011;10089;47.876;8.346;2022-09-03T18:23:15;3.00;;;2.70;;
9698;SDS011;10089;47.876;8.346;2022-09-03T18:26:15;3.28;;;2.92;;
9698;SDS011;10089;47.876;8.346;2022-09-03T18:29:13;3.50;;;2.58;;
9698;SDS011;10089;47.876;8.346;2022-09-03T18:32:02;4.20;;;2.53;;
9698;SDS011;10089;47.876;8.346;2022-09-03T18:34:47;3.30;;;2.72;;
9698;SDS011;10089;47.876;8.346;2022-09-03T18:37:31;3.45;;;3.08;;
9698;SDS011;10089;47.876;8.346;2022-09-03T18:40:17;3.80;;;2.83;;
9698;SDS011;10089;47.876;8.346;2022-09-03T18:43:09;3.03;;;2.72;;
9698;SDS011;10089;47.876;8.346;2022-09-03T18:46:09;3.33;;;3.03;;
9698;SDS011;10089;47.876;8.346;2022-09-03T18:49:19;3.20;;;2.55;;
9698;SDS011;10089;47.876;8.346;2022-09-03T19:01:20;2.80;;;2.60;;
9698;SDS011;10089;47.876;8.346;2022-09-03T19:04:23;3.60;;;2.83;;
9698;SDS011;10089;47.876;8.346;2022-09-03T19:10:36;3.60;;;2.72;;
9698;SDS011;10089;47.876;8.346;2022-09-03T19:13:32;4.88;;;2.95;;
9698;SDS011;10089;47.876;8.346;2022-09-03T19:16:41;4.55;;;3.72;;
9698;SDS011;10089;47.876;8.346;2022-09-03T19:19:36;6.43;;;4.32;;
9698;SDS011;10089;47.876;8.346;2022-09-03T19:25:19;4.03;;;2.97;;
9698;SDS011;10089;47.876;8.346;2022-09-03T19:28:18;3.08;;;2.53;;
9698;SDS011;10089;47.876;8.346;2022-09-03T19:34:35;3.20;;;2.55;;
9698;SDS011;10089;47.876;8.346;2022-09-03T19:47:46;3.03;;;2.50;;
9698;SDS011;10089;47.876;8.346;2022-09-03T19:50:55;3.35;;;2.70;;
9698;SDS011;10089;47.876;8.346;2022-09-03T19:53:50;3.17;;;2.47;;
9698;SDS011;10089;47.876;8.346;2022-09-03T19:56:35;4.05;;;2.67;;
9698;SDS011;10089;47.876;8.346;2022-09-03T19:59:22;3.65;;;2.60;;
9698;SDS011;10089;47.876;8.346;2022-09-03T20:02:09;3.78;;;2.50;;
9698;SDS011;10089;47.876;8.346;2022-09-03T20:04:57;5.95;;;3.00;;
9698;SDS011;10089;47.876;8.346;2022-09-03T20:07:43;5.50;;;3.45;;
9698;SDS011;10089;47.876;8.346;2022-09-03T20:10:29;5.90;;;3.22;;
9698;SDS011;10089;47.876;8.346;2022-09-03T20:13:01;3.65;;;3.25;;
9698;SDS011;10089;47.876;8.346;2022-09-03T20:15:49;3.90;;;2.97;;
9698;SDS011;10089;47.876;8.346;2022-09-03T20:23:29;5.35;;;3.35;;
9698;SDS011;10089;47.876;8.346;2022-09-03T20:26:15;3.72;;;3.10;;
9698;SDS011;10089;47.876;8.346;2022-09-03T20:34:24;4.40;;;2.50;;
9698;SDS011;10089;47.876;8.346;2022-09-03T20:45:15;3.20;;;2.47;;
9698;SDS011;10089;47.876;8.346;2022-09-03T20:47:55;3.33;;;2.25;;
9698;SDS011;10089;47.876;8.346;2022-09-03T20:50:38;3.28;;;2.25;;
9698;SDS011;10089;47.876;8.346;2022-09-03T20:55:49;2.20;;;2.00;;
9698;SDS011;10089;47.876;8.346;2022-09-03T21:11:14;4.72;;;2.40;;
9698;SDS011;10089;47.876;8.346;2022-09-03T21:28:26;4.35;;;2.55;;
9698;SDS011;10089;47.876;8.346;2022-09-03T21:31:25;3.08;;;2.72;;
9698;SDS011;10089;47.876;8.346;2022-09-03T21:34:02;3.65;;;2.60;;
9698;SDS011;10089;47.876;8.346;2022-09-03T21:36:35;4.50;;;2.80;;
9698;SDS011;10089;47.876;8.346;2022-09-03T21:39:14;5.07;;;2.60;;
9698;SDS011;10089;47.876;8.346;2022-09-03T21:47:42;5.47;;;2.90;;
9698;SDS011;10089;47.876;8.346;2022-09-03T21:50:24;4.32;;;2.60;;
9698;SDS011;10089;47.876;8.346;2022-09-03T22:01:01;3.08;;;2.60;;
9698;SDS011;10089;47.876;8.346;2022-09-03T22:03:33;5.40;;;2.97;;
9698;SDS011;10089;47.876;8.346;2022-09-03T22:06:03;4.25;;;3.05;;
9698;SDS011;10089;47.876;8.346;2022-09-03T22:11:45;3.03;;;2.70;;
9698;SDS011;10089;47.876;8.346;2022-09-03T22:14:27;4.57;;;2.92;;
9698;SDS011;10089;47.876;8.346;2022-09-03T22:19:35;2.85;;;2.63;;
9698;SDS011;10089;47.876;8.346;2022-09-03T22:22:09;3.47;;;2.75;;
9698;SDS011;10089;47.876;8.346;2022-09-03T22:30:25;3.40;;;3.00;;
9698;SDS011;10089;47.876;8.346;2022-09-03T22:33:13;3.25;;;2.90;;
9698;SDS011;10089;47.876;8.346;2022-09-03T22:36:02;3.28;;;2.72;;
9698;SDS011;10089;47.876;8.346;2022-09-03T22:44:12;4.13;;;2.83;;
9698;SDS011;10089;47.876;8.346;2022-09-03T22:49:48;6.30;;;2.70;;
9698;SDS011;10089;47.876;8.346;2022-09-03T22:54:57;4.97;;;2.45;;
9698;SDS011;10089;47.876;8.346;2022-09-03T22:57:35;3.30;;;2.53;;